Time;durP1;ratioP1;P1;durP2;ratioP2;P2;SDS_P1;SDS_P2;PMS_P1;PMS_P2;Temp;Humidity;BMP_temperature;BMP_pressure;BME280_temperature;BME280_humidity;BME280_pressure;Samples;Min_cycle;Max_cycle;Signal;HPM_P1;HPM_P2
2022/03/23 00:01:56;;;;;;;48.40;29.30;;;;;;;8.84;42.35;102136.05;105605;1277;24313;-79
2022/03/23 00:04:24;;;;;;;46.40;30.90;;;;;;;8.79;42.44;102131.52;105784;1277;25621;-77
2022/03/23 00:06:51;;;;;;;52.10;31.40;;;;;;;8.73;42.51;102134.52;105787;1278;22718;-78
2022/03/23 00:09:18;;;;;;;54.10;31.10;;;;;;;8.64;42.64;102134.13;105798;1276;22707;-76
2022/03/23 00:11:44;;;;;;;54.20;31.60;;;;;;;8.58;42.95;102132.38;105706;1280;22760;-77
2022/03/23 00:14:11;;;;;;;57.70;30.70;;;;;;;8.53;43.03;102133.45;105866;1277;25223;-75
2022/03/23 00:16:38;;;;;;;62.60;32.30;;;;;;;8.48;43.14;102134.87;106381;1271;22579;-76
2022/03/23 00:19:07;;;;;;;64.70;34.60;;;;;;;8.43;43.36;102131.75;106220;1271;22553;-77
2022/03/23 00:21:34;;;;;;;59.00;32.70;;;;;;;8.38;43.49;102129.50;106291;1271;22958;-75
2022/03/23 00:24:02;;;;;;;62.70;34.30;;;;;;;8.34;43.61;102127.99;106130;1272;24175;-74
2022/03/23 00:26:29;;;;;;;58.00;35.10;;;;;;;8.28;43.75;102125.71;106217;1271;22651;-75
2022/03/23 00:28:57;;;;;;;61.90;36.90;;;;;;;8.22;43.97;102125.57;106446;1271;24070;-73
2022/03/23 00:31:26;;;;;;;63.30;38.20;;;;;;;8.18;44.05;102128.60;106266;1274;25239;-74
2022/03/23 00:33:56;;;;;;;67.20;40.90;;;;;;;8.14;44.22;102125.70;105793;1280;25315;-75
2022/03/23 00:36:24;;;;;;;76.90;41.00;;;;;;;8.10;44.40;102127.50;105704;1280;22532;-75
2022/03/23 00:38:53;;;;;;;69.40;38.60;;;;;;;8.04;44.43;102124.71;106116;1281;24264;-76
2022/03/23 00:41:21;;;;;;;67.90;38.50;;;;;;;8.01;44.54;102124.98;106335;1281;23163;-76
2022/03/23 00:43:48;;;;;;;63.60;40.90;;;;;;;7.98;44.72;102123.47;108207;1281;22670;-76
2022/03/23 00:46:16;;;;;;;78.50;39.30;;;;;;;7.97;44.85;102120.44;108922;1279;22584;-76
2022/03/23 00:48:43;;;;;;;67.20;39.60;;;;;;;7.94;44.86;102123.36;108841;1280;22882;-75
2022/03/23 00:51:10;;;;;;;69.40;39.40;;;;;;;7.89;45.08;102121.27;108995;1278;22540;-75
2022/03/23 00:53:37;;;;;;;62.60;37.80;;;;;;;7.86;45.15;102117.13;109026;1275;24351;-75
2022/03/23 00:56:06;;;;;;;72.50;41.60;;;;;;;7.81;45.26;102114.20;108680;1271;23967;-75
2022/03/23 00:58:34;;;;;;;64.60;43.40;;;;;;;7.79;45.31;102108.89;106433;1272;25297;-75
2022/03/23 01:01:01;;;;;;;75.00;44.00;;;;;;;7.80;45.64;102108.04;106149;1272;22538;-75
2022/03/23 01:03:29;;;;;;;72.60;47.00;;;;;;;7.81;45.81;102108.06;106275;1271;25468;-72
2022/03/23 01:05:56;;;;;;;80.10;45.60;;;;;;;7.76;45.90;102100.90;106078;1274;22553;-77
2022/03/23 01:08:23;;;;;;;83.50;45.30;;;;;;;7.75;45.90;102104.38;106165;1271;22515;-74
2022/03/23 01:10:51;;;;;;;78.10;46.60;;;;;;;7.71;45.92;102100.92;106245;1271;26599;-77
2022/03/23 01:13:18;;;;;;;77.50;46.80;;;;;;;7.63;46.18;102097.18;106142;1274;25440;-78
2022/03/23 01:15:45;;;;;;;70.50;44.70;;;;;;;7.58;46.30;102093.34;106172;1272;25617;-74
2022/03/23 01:18:12;;;;;;;77.30;44.90;;;;;;;7.59;46.44;102095.11;106257;1272;22532;-77
2022/03/23 01:20:39;;;;;;;72.10;44.80;;;;;;;7.53;46.53;102095.30;106209;1274;25255;-79
2022/03/23 01:23:06;;;;;;;77.80;43.40;;;;;;;7.52;46.64;102095.77;106264;1274;24131;-76
2022/03/23 01:25:33;;;;;;;74.60;45.90;;;;;;;7.45;46.72;102096.80;106473;1271;25497;-75
2022/03/23 01:28:00;;;;;;;81.10;45.40;;;;;;;7.36;46.87;102096.16;106338;1271;22754;-80
2022/03/23 01:30:29;;;;;;;72.30;44.30;;;;;;;7.30;47.07;102096.89;106247;1274;25318;-77
2022/03/23 01:32:56;;;;;;;67.80;44.50;;;;;;;7.30;47.15;102096.16;106284;1271;23196;-76
2022/03/23 01:35:26;;;;;;;81.60;45.60;;;;;;;7.30;47.22;102094.24;106178;1271;24314;-76
2022/03/23 01:37:53;;;;;;;75.30;44.20;;;;;;;7.29;47.32;102093.16;106160;1271;24347;-74
2022/03/23 01:40:21;;;;;;;72.70;44.60;;;;;;;7.25;47.42;102089.88;106338;1271;25253;-76
2022/03/23 01:42:48;;;;;;;85.10;46.30;;;;;;;7.16;47.54;102085.91;106064;1274;24089;-74
2022/03/23 01:45:15;;;;;;;86.90;46.70;;;;;;;7.16;47.62;102090.11;106081;1271;25320;-76
2022/03/23 01:47:43;;;;;;;82.30;46.40;;;;;;;7.10;47.65;102091.15;106161;1274;24780;-76
2022/03/23 01:50:11;;;;;;;72.60;45.70;;;;;;;7.07;47.94;102085.46;106124;1271;22600;-82
2022/03/23 01:52:38;;;;;;;79.60;46.00;;;;;;;7.08;47.94;102082.48;106248;1271;23009;-74
2022/03/23 01:55:09;;;;;;;74.30;45.20;;;;;;;7.08;48.14;102081.63;106042;1271;22682;-75
2022/03/23 01:57:39;;;;;;;75.20;45.10;;;;;;;7.04;48.29;102081.52;106268;1271;22561;-73
2022/03/23 02:00:07;;;;;;;74.50;44.80;;;;;;;7.02;48.32;102078.80;106150;1274;24228;-74
2022/03/23 02:02:40;;;;;;;73.30;46.40;;;;;;;6.98;48.35;102080.60;106142;1272;25563;-74
2022/03/23 02:05:12;;;;;;;79.80;46.50;;;;;;;6.97;48.30;102079.16;106307;1271;24356;-73
2022/03/23 02:07:42;;;;;;;87.80;47.80;;;;;;;6.91;48.45;102075.11;106199;1271;22555;-74
2022/03/23 02:10:09;;;;;;;77.40;46.20;;;;;;;6.86;48.65;102073.91;106112;1274;22525;-75
2022/03/23 02:12:46;;;;;;;75.70;45.60;;;;;;;6.82;48.75;102070.79;106120;1271;22527;-74
2022/03/23 02:15:17;;;;;;;83.70;46.60;;;;;;;6.81;48.91;102071.61;106403;1271;23182;-80
2022/03/23 02:17:46;;;;;;;78.00;46.10;;;;;;;6.80;49.04;102070.36;106236;1271;22525;-75
2022/03/23 02:20:13;;;;;;;73.10;46.30;;;;;;;6.76;49.14;102065.70;106291;1271;22537;-81
2022/03/23 02:22:41;;;;;;;94.90;48.50;;;;;;;6.75;49.19;102065.13;106165;1272;24224;-77
2022/03/23 02:25:09;;;;;;;77.30;48.20;;;;;;;6.68;49.29;102069.11;106282;1271;25303;-77
2022/03/23 02:27:38;;;;;;;80.10;47.50;;;;;;;6.64;49.57;102066.50;106306;1271;23932;-74
2022/03/23 02:30:07;;;;;;;77.70;50.30;;;;;;;6.63;49.82;102064.02;106260;1271;22531;-73
2022/03/23 02:32:35;;;;;;;86.20;51.10;;;;;;;6.61;50.01;102066.23;106527;1270;22515;-73
2022/03/23 02:35:03;;;;;;;77.30;47.20;;;;;;;6.58;50.16;102066.81;106351;1271;24371;-76
2022/03/23 02:37:30;;;;;;;82.10;49.20;;;;;;;6.56;50.01;102067.98;106576;1271;22549;-77
2022/03/23 02:39:57;;;;;;;88.80;51.50;;;;;;;6.51;50.11;102070.98;106434;1269;22509;-77
2022/03/23 02:42:24;;;;;;;73.20;46.90;;;;;;;6.45;50.38;102073.39;106546;1271;22697;-80
2022/03/23 02:44:51;;;;;;;57.30;36.10;;;;;;;6.44;50.29;102067.23;106536;1271;25248;-78
2022/03/23 02:47:18;;;;;;;56.40;36.00;;;;;;;6.46;49.93;102072.04;106457;1271;22527;-78
2022/03/23 02:49:45;;;;;;;56.30;35.00;;;;;;;6.50;49.85;102064.29;106492;1271;22468;-78
2022/03/23 02:52:12;;;;;;;52.10;33.70;;;;;;;6.52;49.50;102065.39;106288;1271;22697;-77
2022/03/23 03:03:01;;;;;;;47.50;30.40;;;;;;;6.52;49.14;102052.83;106524;1271;22838;-74
2022/03/23 03:05:28;;;;;;;46.40;31.60;;;;;;;6.50;49.17;102050.09;106605;1269;26461;-74
2022/03/23 03:10:40;;;;;;;47.10;30.00;;;;;;;6.55;48.94;102043.45;106610;1272;25367;-74
2022/03/23 03:13:07;;;;;;;44.50;30.40;;;;;;;6.53;48.84;102039.53;106542;1271;22556;-76
2022/03/23 03:15:34;;;;;;;50.60;32.00;;;;;;;6.47;48.73;102035.30;106627;1274;22519;-73
2022/03/23 03:18:01;;;;;;;43.00;29.50;;;;;;;6.39;48.80;102030.32;106790;1276;22550;-74
2022/03/23 03:20:28;;;;;;;49.70;31.00;;;;;;;6.36;48.81;102031.78;106236;1276;25249;-75
2022/03/23 03:22:55;;;;;;;40.30;28.50;;;;;;;6.34;48.80;102026.80;105996;1277;22528;-75
2022/03/23 03:25:22;;;;;;;46.90;29.00;;;;;;;6.30;48.86;102023.00;106151;1276;24162;-76
2022/03/23 03:27:49;;;;;;;43.90;29.00;;;;;;;6.34;48.89;102020.17;105919;1275;22722;-81
2022/03/23 03:30:18;;;;;;;45.10;28.80;;;;;;;6.39;48.74;102018.77;106011;1274;25378;-77
2022/03/23 03:32:46;;;;;;;44.40;28.70;;;;;;;6.42;48.64;102019.77;106074;1274;24759;-76
2022/03/23 03:35:13;;;;;;;46.80;29.50;;;;;;;6.39;48.36;102013.88;106635;1271;24244;-77
2022/03/23 03:37:41;;;;;;;40.80;27.40;;;;;;;6.44;48.44;102018.08;106464;1271;26484;-79
2022/03/23 03:40:09;;;;;;;41.20;27.80;;;;;;;6.47;48.52;102020.27;106368;1274;26503;-75
2022/03/23 03:42:37;;;;;;;45.70;30.10;;;;;;;6.53;48.47;102020.64;106445;1271;24214;-75
2022/03/23 03:45:06;;;;;;;42.20;28.70;;;;;;;6.58;48.37;102017.80;106391;1271;22528;-76
2022/03/23 03:47:33;;;;;;;47.60;28.30;;;;;;;6.62;48.24;102014.12;106608;1271;26583;-72
2022/03/23 03:50:01;;;;;;;44.10;28.90;;;;;;;6.64;48.25;102012.95;107973;1271;22523;-75
2022/03/23 03:52:27;;;;;;;42.20;29.70;;;;;;;6.67;48.19;102016.57;109178;1271;22592;-75
2022/03/23 03:54:54;;;;;;;39.60;27.50;;;;;;;6.70;48.07;102016.11;109161;1271;22556;-73
2022/03/23 03:57:22;;;;;;;53.60;29.90;;;;;;;6.72;48.07;102017.21;109266;1271;22608;-80
2022/03/23 03:59:49;;;;;;;46.10;30.80;;;;;;;6.67;47.99;102017.60;109333;1269;22522;-74
2022/03/23 04:02:16;;;;;;;47.60;30.00;;;;;;;6.55;47.88;102011.77;109262;1271;23311;-77
2022/03/23 04:04:43;;;;;;;42.20;29.00;;;;;;;6.54;47.95;102016.64;108878;1270;22645;-75
2022/03/23 04:07:10;;;;;;;47.80;32.50;;;;;;;6.52;48.10;102017.81;106394;1274;25577;-76
2022/03/23 04:09:37;;;;;;;43.30;31.00;;;;;;;6.51;48.02;102015.50;106117;1274;24246;-75
2022/03/23 04:12:05;;;;;;;48.20;31.70;;;;;;;6.51;48.06;102015.50;106037;1274;24276;-74
2022/03/23 04:14:31;;;;;;;45.00;30.00;;;;;;;6.52;48.08;102017.62;105909;1274;24228;-74
2022/03/23 04:16:59;;;;;;;39.70;28.40;;;;;;;6.49;48.17;102015.06;105560;1280;25458;-74
2022/03/23 04:19:26;;;;;;;49.00;31.60;;;;;;;6.48;48.15;102014.35;105572;1280;24473;-75
2022/03/23 04:21:53;;;;;;;36.00;26.60;;;;;;;6.49;48.12;102014.19;105600;1280;23926;-72
2022/03/23 04:24:20;;;;;;;41.40;27.90;;;;;;;6.40;48.00;102015.63;105635;1280;26546;-74
2022/03/23 04:26:47;;;;;;;39.30;26.80;;;;;;;6.30;48.17;102014.44;105294;1282;22582;-74
2022/03/23 04:29:14;;;;;;;47.40;29.50;;;;;;;6.25;48.15;102009.36;105510;1281;22702;-73
2022/03/23 04:31:41;;;;;;;44.50;29.40;;;;;;;6.24;48.53;102008.45;105519;1282;25238;-75
2022/03/23 04:34:08;;;;;;;43.20;29.80;;;;;;;6.30;48.70;102009.70;105526;1282;22537;-76
2022/03/23 04:36:35;;;;;;;43.30;30.40;;;;;;;6.35;48.53;102008.63;106058;1277;23845;-73
2022/03/23 04:39:02;;;;;;;47.10;30.90;;;;;;;6.38;48.47;102004.91;105811;1278;22602;-74
2022/03/23 04:41:29;;;;;;;50.30;31.20;;;;;;;6.41;48.49;102003.25;106086;1277;25603;-75
2022/03/23 04:43:56;;;;;;;46.30;30.80;;;;;;;6.43;48.40;102003.50;106032;1276;22750;-79
2022/03/23 04:46:23;;;;;;;48.50;31.60;;;;;;;6.46;48.32;102004.80;106238;1271;24276;-72
2022/03/23 04:48:50;;;;;;;47.30;30.60;;;;;;;6.44;48.33;102006.16;106533;1268;22605;-75
2022/03/23 04:51:17;;;;;;;52.40;32.30;;;;;;;6.38;48.28;102003.84;106358;1271;22525;-76
2022/03/23 04:53:44;;;;;;;53.70;31.60;;;;;;;6.32;48.34;102004.69;106438;1271;25486;-76
2022/03/23 04:56:12;;;;;;;45.70;30.30;;;;;;;6.27;48.39;101999.30;106363;1271;22929;-75
2022/03/23 04:58:39;;;;;;;45.90;30.90;;;;;;;6.26;48.49;102005.19;106359;1271;24711;-74
2022/03/23 05:01:06;;;;;;;46.00;29.70;;;;;;;6.20;48.52;101999.73;106357;1271;22525;-77
2022/03/23 05:03:34;;;;;;;45.20;30.20;;;;;;;6.17;48.62;101998.75;106313;1271;22993;-77
2022/03/23 05:06:02;;;;;;;44.10;29.40;;;;;;;6.17;48.69;101998.59;106550;1270;24360;-78
2022/03/23 05:08:29;;;;;;;46.80;31.60;;;;;;;6.19;48.70;101993.06;106214;1274;23338;-85
2022/03/23 05:10:57;;;;;;;48.00;30.50;;;;;;;6.18;48.69;101997.23;106030;1274;22869;-73
2022/03/23 05:13:25;;;;;;;44.00;29.30;;;;;;;6.21;48.89;101996.64;105669;1280;22748;-78
2022/03/23 05:15:52;;;;;;;48.80;30.20;;;;;;;6.26;48.78;101995.73;105723;1280;22600;-80
2022/03/23 05:18:19;;;;;;;48.30;30.50;;;;;;;6.24;48.64;101993.05;105690;1280;24242;-78
2022/03/23 05:20:46;;;;;;;43.50;29.30;;;;;;;6.22;48.69;101995.61;105680;1279;25338;-76
2022/03/23 05:23:13;;;;;;;48.90;31.00;;;;;;;6.26;48.83;101990.66;105654;1282;22783;-75
2022/03/23 05:25:40;;;;;;;47.80;30.00;;;;;;;6.29;48.77;101996.21;105840;1282;23120;-77
2022/03/23 05:28:08;;;;;;;46.60;31.40;;;;;;;6.28;48.70;101995.30;105868;1278;25528;-76
2022/03/23 05:30:36;;;;;;;50.20;32.10;;;;;;;6.29;48.86;101992.35;105975;1276;22566;-78
2022/03/23 05:33:03;;;;;;;50.00;31.40;;;;;;;6.36;48.76;101991.88;106283;1271;24329;-82
2022/03/23 05:35:31;;;;;;;45.40;29.40;;;;;;;6.38;48.65;101992.84;106263;1271;25235;-83
2022/03/23 05:37:58;;;;;;;48.00;30.90;;;;;;;6.40;48.59;101990.78;106515;1271;25299;-82
2022/03/23 05:40:25;;;;;;;50.50;31.30;;;;;;;6.46;48.70;101990.30;106655;1278;22642;-80
2022/03/23 05:42:52;;;;;;;51.20;30.50;;;;;;;6.54;48.70;101987.42;106604;1276;22574;-83
2022/03/23 05:45:23;;;;;;;46.00;32.40;;;;;;;6.63;48.59;101988.23;106650;1276;24069;-86
2022/03/23 05:47:53;;;;;;;53.60;30.60;;;;;;;6.70;48.57;101985.30;106556;1282;22610;-80
2022/03/23 05:50:20;;;;;;;48.30;31.20;;;;;;;6.76;48.43;101980.59;105910;1283;25347;-80
2022/03/23 05:52:47;;;;;;;45.10;30.70;;;;;;;6.81;48.30;101979.36;106490;1281;24394;-86
2022/03/23 05:55:15;;;;;;;52.00;31.80;;;;;;;6.86;48.24;101978.30;105361;1283;22540;-78
2022/03/23 05:57:41;;;;;;;43.70;29.30;;;;;;;6.92;48.20;101982.15;105396;1274;22829;-77
2022/03/23 06:00:09;;;;;;;50.60;31.10;;;;;;;6.97;48.05;101979.48;106051;1276;24547;-76
2022/03/23 06:02:40;;;;;;;50.10;29.50;;;;;;;6.98;48.07;101978.30;106154;1274;22557;-78
2022/03/23 06:05:09;;;;;;;42.90;27.10;;;;;;;7.03;47.95;101983.18;106070;1274;22532;-77
2022/03/23 06:07:36;;;;;;;42.60;26.40;;;;;;;7.03;47.87;101977.94;106485;1271;23056;-75
2022/03/23 06:10:07;;;;;;;46.90;28.60;;;;;;;7.05;47.94;101976.27;106292;1271;24243;-77
2022/03/23 06:12:34;;;;;;;49.00;30.90;;;;;;;7.07;47.91;101971.91;106284;1271;22540;-77
2022/03/23 06:15:02;;;;;;;44.10;26.50;;;;;;;7.17;47.85;101976.79;106083;1271;22529;-80
2022/03/23 06:17:29;;;;;;;48.20;27.40;;;;;;;7.23;47.72;101975.89;106464;1271;23984;-75
2022/03/23 06:19:56;;;;;;;46.70;28.00;;;;;;;7.28;47.71;101978.70;105691;1278;22559;-86
2022/03/23 06:22:25;;;;;;;44.50;28.20;;;;;;;7.36;47.70;101976.64;105712;1278;24224;-76
2022/03/23 06:24:53;;;;;;;42.90;26.20;;;;;;;7.43;47.52;101973.50;105689;1278;24333;-76
2022/03/23 06:27:19;;;;;;;41.00;26.00;;;;;;;7.49;47.32;101975.09;105133;1284;22530;-76
2022/03/23 06:29:46;;;;;;;38.60;25.40;;;;;;;7.56;47.21;101969.50;105089;1284;22553;-76
2022/03/23 06:32:14;;;;;;;40.10;25.40;;;;;;;7.62;47.11;101968.09;104988;1285;24427;-82
2022/03/23 06:34:41;;;;;;;43.60;26.60;;;;;;;7.68;46.97;101967.73;105229;1284;24821;-78
2022/03/23 06:37:08;;;;;;;41.80;27.50;;;;;;;7.78;47.21;101971.54;105471;1285;24371;-84
2022/03/23 06:39:36;;;;;;;48.30;26.80;;;;;;;7.90;46.74;101967.80;106468;1279;22619;-89
2022/03/23 06:42:04;;;;;;;42.90;26.20;;;;;;;7.95;46.46;101967.77;107848;1278;22568;-81
2022/03/23 06:44:32;;;;;;;45.90;27.00;;;;;;;8.00;46.44;101967.88;106664;1278;24246;-83
2022/03/23 06:46:59;;;;;;;41.20;25.60;;;;;;;8.06;46.15;101971.39;106417;1271;25239;-84
2022/03/23 06:49:26;;;;;;;51.30;29.60;;;;;;;8.11;46.03;101966.96;106343;1271;25407;-82
2022/03/23 06:51:53;;;;;;;46.90;28.60;;;;;;;8.17;46.09;101965.20;105943;1276;22550;-83
2022/03/23 06:54:19;;;;;;;41.00;25.70;;;;;;;8.24;45.85;101963.79;106200;1276;22537;-83
2022/03/23 06:56:50;;;;;;;49.70;26.50;;;;;;;8.30;45.76;101966.74;106467;1276;22538;-84
2022/03/23 06:59:18;;;;;;;40.70;26.20;;;;;;;8.36;45.78;101968.50;107695;1276;23151;-82
2022/03/23 07:01:46;;;;;;;41.80;25.30;;;;;;;8.45;45.77;101966.94;108927;1276;25953;-84
2022/03/23 07:04:13;;;;;;;48.60;27.20;;;;;;;8.55;45.52;101965.81;109348;1276;22571;-82
2022/03/23 07:06:41;;;;;;;45.40;26.80;;;;;;;8.64;45.30;101962.71;108928;1276;22896;-83
2022/03/23 07:10:10;;;;;;;40.20;26.20;;;;;;;8.74;45.17;101959.24;108629;1271;22849;-82
2022/03/23 07:12:09;;;;;;;44.10;27.20;;;;;;;8.86;45.02;101962.34;108681;1271;22463;-82
2022/03/23 07:14:39;;;;;;;43.40;26.20;;;;;;;8.95;44.84;101960.63;108991;1271;22528;-82
2022/03/23 07:17:07;;;;;;;36.30;25.20;;;;;;;9.08;44.69;101960.90;108886;1269;22752;-83
2022/03/23 07:19:34;;;;;;;31.50;21.60;;;;;;;9.21;44.23;101958.02;106926;1271;24239;-81
2022/03/23 07:22:01;;;;;;;30.70;20.00;;;;;;;9.33;43.64;101958.96;106606;1271;22524;-83
2022/03/23 07:24:28;;;;;;;26.20;19.00;;;;;;;9.44;43.44;101955.87;106623;1270;22547;-83
2022/03/23 07:26:56;;;;;;;26.30;19.00;;;;;;;9.54;43.05;101950.95;106373;1269;22810;-82
2022/03/23 07:29:43;;;;;;;35.90;21.30;;;;;;;9.66;42.72;101951.20;106288;1271;22676;-84
2022/03/23 07:32:10;;;;;;;31.00;20.70;;;;;;;9.77;42.43;101946.30;106444;1271;22647;-81
2022/03/23 07:34:37;;;;;;;30.00;20.40;;;;;;;9.87;42.26;101941.05;106398;1271;24180;-83
2022/03/23 07:37:04;;;;;;;33.20;20.40;;;;;;;9.97;41.96;101942.46;106334;1272;22524;-79
2022/03/23 07:39:31;;;;;;;33.70;22.30;;;;;;;10.06;41.84;101943.16;106204;1271;22591;-81
2022/03/23 07:42:02;;;;;;;34.80;21.40;;;;;;;10.15;41.57;101944.38;106245;1271;22911;-82
2022/03/23 07:44:35;;;;;;;34.60;21.70;;;;;;;10.24;41.58;101940.64;106357;1271;25177;-82
2022/03/23 07:47:07;;;;;;;32.50;21.30;;;;;;;10.35;41.62;101937.66;106545;1271;24191;-84
2022/03/23 07:49:34;;;;;;;30.80;21.50;;;;;;;10.46;41.47;101931.86;105818;1277;25420;-84
2022/03/23 07:52:02;;;;;;;31.60;19.80;;;;;;;10.57;41.17;101929.93;105997;1277;22570;-83
2022/03/23 07:54:30;;;;;;;30.10;20.60;;;;;;;10.68;41.02;101935.04;105755;1277;25775;-84
2022/03/23 07:56:58;;;;;;;30.60;21.10;;;;;;;10.76;40.07;101929.52;105851;1279;24248;-84
2022/03/23 07:59:25;;;;;;;26.70;18.00;;;;;;;10.82;39.99;101930.84;105769;1279;22546;-83
2022/03/23 08:01:53;;;;;;;28.90;18.90;;;;;;;10.86;39.90;101928.08;105662;1279;22629;-83
2022/03/23 08:04:20;;;;;;;29.50;19.90;;;;;;;10.90;39.80;101925.48;105061;1286;25410;-83
2022/03/23 08:06:47;;;;;;;33.70;21.70;;;;;;;10.99;39.81;101919.45;105159;1285;25438;-82
2022/03/23 08:09:14;;;;;;;32.70;21.80;;;;;;;11.08;39.33;101918.52;105724;1281;22532;-83
2022/03/23 08:11:41;;;;;;;35.60;22.50;;;;;;;11.13;39.20;101914.71;106080;1280;26632;-83
2022/03/23 08:14:08;;;;;;;30.30;19.40;;;;;;;11.22;39.27;101913.04;105655;1281;22543;-84
2022/03/23 08:16:36;;;;;;;34.00;22.40;;;;;;;11.30;39.01;101913.31;106121;1279;23210;-84
2022/03/23 08:19:03;;;;;;;45.10;23.70;;;;;;;11.36;38.90;101913.92;105863;1278;22531;-83
2022/03/23 08:21:32;;;;;;;38.20;22.20;;;;;;;11.40;38.71;101913.43;106056;1277;25369;-82
2022/03/23 08:23:59;;;;;;;33.50;22.90;;;;;;;11.47;38.78;101916.87;106378;1271;25240;-82
2022/03/23 08:26:26;;;;;;;40.90;23.10;;;;;;;11.58;38.70;101914.16;106372;1271;25256;-83
2022/03/23 08:28:53;;;;;;;33.50;23.90;;;;;;;11.71;38.75;101914.66;105562;1277;232530;-81
2022/03/23 08:31:20;;;;;;;39.00;23.40;;;;;;;11.84;38.76;101910.56;105875;1276;23951;-82
2022/03/23 08:33:47;;;;;;;37.30;23.70;;;;;;;11.99;38.83;101908.59;106129;1275;24795;-82
2022/03/23 08:36:14;;;;;;;38.80;23.80;;;;;;;12.15;38.54;101909.12;105634;1279;24836;-82
2022/03/23 08:38:42;;;;;;;36.10;23.70;;;;;;;12.29;38.23;101897.75;105708;1279;24406;-82
2022/03/23 08:41:09;;;;;;;37.70;22.90;;;;;;;12.42;37.90;101903.67;105826;1277;26566;-82
2022/03/23 08:43:36;;;;;;;33.60;23.30;;;;;;;12.54;37.66;101900.76;105543;1279;24296;-82
2022/03/23 08:46:04;;;;;;;38.40;24.20;;;;;;;12.66;37.42;101898.37;105687;1279;25255;-83
2022/03/23 08:48:31;;;;;;;36.40;23.50;;;;;;;12.82;37.38;101893.16;105894;1276;22797;-87
2022/03/23 08:50:59;;;;;;;39.00;24.10;;;;;;;12.98;37.19;101891.30;106071;1277;25835;-84
2022/03/23 08:53:27;;;;;;;39.50;24.70;;;;;;;13.11;37.17;101882.52;106431;1276;25427;-83
2022/03/23 08:55:54;;;;;;;37.30;23.10;;;;;;;13.34;36.95;101889.32;107409;1271;23813;-82
2022/03/23 08:58:21;;;;;;;34.80;25.20;;;;;;;13.50;36.44;101884.25;107590;1271;23958;-83
2022/03/23 09:00:48;;;;;;;39.90;23.00;;;;;;;13.65;35.72;101888.55;107465;1271;23930;-82
2022/03/23 09:03:15;;;;;;;35.30;23.60;;;;;;;13.82;35.45;101892.48;107548;1271;25376;-82
2022/03/23 09:05:43;;;;;;;34.80;23.50;;;;;;;13.97;35.22;101887.53;106906;1271;22578;-84
2022/03/23 09:08:10;;;;;;;31.80;21.50;;;;;;;14.12;34.70;101879.57;106542;1271;22544;-85
2022/03/23 09:10:38;;;;;;;36.10;25.10;;;;;;;14.25;34.57;101880.80;107069;1271;22499;-83
2022/03/23 09:13:05;;;;;;;37.30;24.60;;;;;;;14.42;34.65;101881.14;108082;1271;22523;-80
2022/03/23 09:15:32;;;;;;;28.50;22.30;;;;;;;14.57;34.22;101878.29;108136;1270;22701;-82
2022/03/23 09:18:01;;;;;;;35.10;23.30;;;;;;;14.71;33.96;101868.14;107459;1271;25329;-82
2022/03/23 09:20:28;;;;;;;33.40;22.90;;;;;;;14.90;33.66;101865.82;106728;1271;25585;-83
2022/03/23 09:22:57;;;;;;;33.80;23.10;;;;;;;15.11;33.49;101866.44;106395;1271;25599;-82
2022/03/23 09:25:24;;;;;;;34.70;23.00;;;;;;;15.29;32.55;101861.02;106373;1271;25321;-83
2022/03/23 09:27:53;;;;;;;32.50;23.60;;;;;;;15.37;32.22;101860.63;106292;1270;24270;-82
2022/03/23 09:30:21;;;;;;;33.10;23.40;;;;;;;15.50;32.03;101859.85;106402;1271;22684;-83
2022/03/23 09:32:48;;;;;;;37.40;25.20;;;;;;;15.55;31.29;101857.67;106327;1271;23142;-83
2022/03/23 09:35:17;;;;;;;35.80;23.90;;;;;;;15.57;31.32;101854.48;106356;1271;22610;-84
2022/03/23 09:37:47;;;;;;;31.00;21.40;;;;;;;15.73;31.25;101850.46;106489;1271;24229;-82
2022/03/23 09:40:24;;;;;;;27.10;21.00;;;;;;;15.86;30.77;101849.66;106243;1271;22568;-83
2022/03/23 09:43:00;;;;;;;35.60;23.90;;;;;;;15.96;30.16;101844.43;106076;1271;23285;-84
2022/03/23 09:48:06;;;;;;;27.30;21.60;;;;;;;16.31;30.60;101835.08;105985;1276;22849;-82
2022/03/23 09:50:33;;;;;;;31.90;23.60;;;;;;;16.49;30.00;101832.40;105956;1276;22561;-83
2022/03/23 09:53:02;;;;;;;32.70;22.90;;;;;;;16.62;29.64;101826.58;106095;1275;22550;-82
2022/03/23 09:55:30;;;;;;;33.80;20.70;;;;;;;16.76;29.42;101825.87;106036;1275;24303;-80
2022/03/23 09:57:59;;;;;;;26.70;20.40;;;;;;;16.95;29.35;101821.91;105960;1276;22581;-84
2022/03/23 10:00:39;;;;;;;31.50;23.10;;;;;;;17.18;29.20;101816.27;106082;1275;24245;-84
2022/03/23 10:03:13;;;;;;;30.90;21.60;;;;;;;17.33;28.79;101816.26;106735;1274;22864;-83
2022/03/23 10:06:03;;;;;;;25.00;19.70;;;;;;;17.46;28.39;101817.67;107643;1270;22877;-82
2022/03/23 10:09:15;;;;;;;23.70;17.90;;;;;;;17.57;27.51;101808.23;108781;1270;22697;-82
2022/03/23 10:12:16;;;;;;;26.90;20.30;;;;;;;17.56;26.66;101808.42;109267;1270;22576;-83
2022/03/23 10:15:21;;;;;;;29.50;20.30;;;;;;;17.62;27.00;101804.95;109558;1271;22582;-83
2022/03/23 10:18:16;;;;;;;27.10;21.40;;;;;;;17.84;27.19;101802.63;109640;1270;22877;-89
2022/03/23 10:20:43;;;;;;;31.70;20.10;;;;;;;18.10;26.86;101799.70;108979;1277;22599;-81
2022/03/23 10:23:11;;;;;;;23.50;18.30;;;;;;;18.20;26.47;101795.09;107464;1277;24268;-82
2022/03/23 10:25:40;;;;;;;24.20;16.90;;;;;;;18.36;25.38;101788.36;106329;1276;24286;-81
2022/03/23 10:28:15;;;;;;;26.50;17.90;;;;;;;18.43;25.19;101778.95;105986;1278;22569;-82
2022/03/23 10:30:44;;;;;;;22.60;17.80;;;;;;;18.63;25.30;101775.70;105949;1277;22525;-82
2022/03/23 10:33:24;;;;;;;24.00;17.30;;;;;;;18.79;25.06;101769.48;105990;1278;22718;-82
2022/03/23 10:35:52;;;;;;;24.70;18.50;;;;;;;18.97;24.81;101768.72;105915;1276;24319;-83
2022/03/23 10:38:21;;;;;;;23.00;17.80;;;;;;;19.08;24.37;101765.63;105908;1271;22544;-83
2022/03/23 10:40:52;;;;;;;26.50;18.30;;;;;;;19.11;24.68;101760.75;106384;1271;22521;-81
2022/03/23 10:43:22;;;;;;;21.10;16.40;;;;;;;19.34;24.66;101761.85;106293;1271;22623;-84
2022/03/23 10:45:50;;;;;;;22.50;16.70;;;;;;;19.49;24.27;101750.95;106391;1271;22893;-81
2022/03/23 10:48:20;;;;;;;25.00;16.20;;;;;;;19.58;23.95;101752.31;105836;1276;25299;-83
2022/03/23 10:50:56;;;;;;;24.10;17.50;;;;;;;19.68;24.07;101750.84;106079;1274;22547;-83
2022/03/23 10:53:37;;;;;;;21.80;15.80;;;;;;;19.78;23.45;101745.04;105594;1281;22715;-84
2022/03/23 10:56:05;;;;;;;19.80;15.30;;;;;;;19.91;23.10;101743.80;105668;1280;22549;-84
2022/03/23 10:58:34;;;;;;;20.80;15.20;;;;;;;19.93;22.83;101734.61;105770;1279;22567;-84
2022/03/23 11:01:12;;;;;;;18.30;14.00;;;;;;;19.94;22.58;101735.48;105089;1284;25391;-85
2022/03/23 11:03:48;;;;;;;18.00;15.10;;;;;;;19.96;22.32;101729.38;105384;1285;25250;-85
2022/03/23 11:06:23;;;;;;;18.20;14.90;;;;;;;20.07;22.70;101726.39;106067;1279;22694;-83
2022/03/23 11:08:51;;;;;;;;;;;;;;;20.33;22.38;101725.50;105895;1280;24747;-83
2022/03/23 11:16:49;;;;;;;17.80;13.90;;;;;;;19.97;21.21;101712.89;107207;1274;25503;-83
2022/03/23 11:19:19;;;;;;;18.80;15.40;;;;;;;20.08;21.72;101714.93;106800;1270;23040;-80
2022/03/23 11:22:01;;;;;;;18.70;13.80;;;;;;;20.30;21.81;101705.94;107832;1271;22532;-83
2022/03/23 11:24:34;;;;;;;17.20;14.60;;;;;;;20.53;21.51;101705.42;107175;1271;25892;-79
2022/03/23 11:27:01;;;;;;;15.40;13.80;;;;;;;20.56;20.84;101699.42;106881;1271;22540;-83
2022/03/23 11:29:32;;;;;;;17.20;12.70;;;;;;;20.57;20.57;101700.13;106524;1271;25967;-81
2022/03/23 11:32:04;;;;;;;15.70;13.70;;;;;;;20.55;20.79;101693.91;106566;1271;22615;-84
2022/03/23 11:34:36;;;;;;;16.90;13.70;;;;;;;20.79;21.11;101691.73;106146;1271;25268;-83